Portada
METAR-TAF:

METAR-TAF

Aeropuertos :

Aeropuerto Urbano Charles B. Wheeler

Kansas City, Misuri, Estados Unidos

latitud: 39-07-15N, longitud: 094-35-49W, altitud: 231 m

Observación

El informe se hizo hace 6 minutos, a las 01:54 UTC
Viento 3 kt del noroeste
Temperatura 19°C
Humedad 73%
Presión 1016 hPa
Visibilidad: 16.1 km
Cielo despejado

METAR: KMKC 290154Z 32003KT 10SM CLR 19/14 A3000 RMK AO2 SLP154 T01940139

Hora: 21:00 (02:00 UTC)

Pronóstico

El informe se hizo hace 2 horas y 35 minutos, a las 23:25 UTC
Pronóstico válido del 29 a las 00 UTC al 29 a las 24 UTC
Viento 6 kt del norte
Visibilidad: 10 km
Cielo nuboso a una altura de 20000 ft

TAF: KMKC 282325Z 2900/2924 35006KT P6SM BKN200

Observaciones y pronósticos meteorológicos de más de 4000 aeropuertos (mensajes METAR y TAF).

Los puntos amarillos y rojos representan las estaciones disponibles.

Ponga el ratón en el punto deseado para ver el nombre de la estación.

Haga clic para ver las observaciones y los pronósticos meteorológicos.

Para cambiar el mapa : haga clic en los botones verdes con una cruz de color negro para hacer un zoom, en el botón verde con un guión para alejar o en las flechas verdes para mapas adyacentes.


METAR-TAF: